createdAt,value
2023-04-27T00:02:22.013Z,28.39
2023-04-27T00:04:50.392Z,28.15
2023-04-27T00:07:18.408Z,28.11
2023-04-27T00:09:47.694Z,28.23
2023-04-27T00:12:15.805Z,28.51
2023-04-27T00:14:43.833Z,28.38
2023-04-27T00:17:11.766Z,28.34
2023-04-27T00:19:41.904Z,28.35
2023-04-27T00:22:09.860Z,28.13
2023-04-27T00:24:37.793Z,28.03
2023-04-27T00:27:07.513Z,28.42
2023-04-27T00:29:35.651Z,27.85
2023-04-27T00:32:03.668Z,28.19
2023-04-27T00:34:31.669Z,28.48
2023-04-27T00:36:59.756Z,27.94
2023-04-27T00:39:27.882Z,28.03
2023-04-27T00:41:56.004Z,28.10
2023-04-27T00:44:25.897Z,28.20
2023-04-27T00:46:53.809Z,27.94
2023-04-27T00:49:22.285Z,28.05
2023-04-27T00:51:50.887Z,28.07
2023-04-27T00:54:20.722Z,27.92
2023-04-27T00:56:49.880Z,28.13
2023-04-27T00:59:17.834Z,27.92
2023-04-27T01:01:47.383Z,28.08
2023-04-27T01:04:17.135Z,27.75
2023-04-27T01:06:45.696Z,27.75
2023-04-27T01:09:13.968Z,27.75
2023-04-27T01:11:42.162Z,27.88
2023-04-27T01:14:11.189Z,27.82
2023-04-27T01:16:39.161Z,27.83
2023-04-27T01:19:08.696Z,28.07
2023-04-27T01:21:36.689Z,28.08
2023-04-27T01:24:07.483Z,27.88
2023-04-27T01:26:35.766Z,28.23
2023-04-27T01:29:03.683Z,28.05
2023-04-27T01:31:31.808Z,28.18
2023-04-27T01:33:59.726Z,28.21
2023-04-27T01:36:28.219Z,27.88
2023-04-27T01:38:56.184Z,28.17
2023-04-27T01:41:28.174Z,28.21
2023-04-27T01:43:56.145Z,27.92
2023-04-27T01:46:24.617Z,27.93
2023-04-27T01:48:52.664Z,27.70
2023-04-27T01:51:20.639Z,27.56
2023-04-27T01:53:48.573Z,27.66
2023-04-27T01:56:16.620Z,27.86
2023-04-27T01:58:46.185Z,27.89
2023-04-27T02:01:14.195Z,27.60
2023-04-27T02:03:42.459Z,27.86
2023-04-27T02:06:10.571Z,27.53
2023-04-27T02:08:38.475Z,27.55
2023-04-27T02:11:06.463Z,27.66
2023-04-27T02:13:34.455Z,27.61
2023-04-27T02:16:05.257Z,27.84
2023-04-27T02:18:33.798Z,27.94
2023-04-27T02:21:01.908Z,27.87
2023-04-27T02:23:29.892Z,27.65
2023-04-27T02:25:57.864Z,27.75
2023-04-27T02:28:25.859Z,27.52
2023-04-27T02:30:54.297Z,28.00
2023-04-27T02:33:23.710Z,27.77
2023-04-27T02:35:51.734Z,27.67
2023-04-27T02:38:19.820Z,28.08
2023-04-27T02:40:47.767Z,27.76
2023-04-27T02:43:15.771Z,27.89
2023-04-27T02:45:43.777Z,27.88
2023-04-27T02:48:11.692Z,27.76
2023-04-27T02:50:43.132Z,27.83
2023-04-27T02:53:11.161Z,27.63
2023-04-27T02:55:39.173Z,27.83
2023-04-27T02:58:07.166Z,27.80
2023-04-27T03:00:35.328Z,27.55
2023-04-27T03:03:04.466Z,27.87
2023-04-27T03:05:32.862Z,28.05
2023-04-27T03:08:02.198Z,27.82
2023-04-27T03:10:30.291Z,27.47
2023-04-27T03:12:58.223Z,28.00
2023-04-27T03:15:26.407Z,27.74
2023-04-27T03:17:56.582Z,27.67
2023-04-27T03:20:24.531Z,27.92
2023-04-27T03:22:54.684Z,27.85
2023-04-27T03:25:24.246Z,27.93
2023-04-27T03:27:52.468Z,27.60
2023-04-27T03:30:20.608Z,27.78
2023-04-27T03:32:48.540Z,28.04
2023-04-27T03:35:16.956Z,28.15
2023-04-27T03:37:46.206Z,27.87
2023-04-27T03:40:15.513Z,27.85
2023-04-27T03:42:44.938Z,27.96
2023-04-27T03:45:13.323Z,27.74
2023-04-27T03:47:41.440Z,27.73
2023-04-27T03:50:10.407Z,27.53
2023-04-27T03:52:38.354Z,28.00
2023-04-27T03:55:07.448Z,28.14
2023-04-27T03:57:35.375Z,28.01
2023-04-27T04:00:07.748Z,27.75
2023-04-27T04:02:36.786Z,27.60
2023-04-27T04:05:04.857Z,27.82
2023-04-27T04:07:32.891Z,27.52
2023-04-27T04:10:00.771Z,27.78
2023-04-27T04:12:28.637Z,27.88
2023-04-27T04:14:56.737Z,27.98
2023-04-27T04:17:26.225Z,27.87
2023-04-27T04:19:54.261Z,28.08
2023-04-27T04:22:22.183Z,27.62
2023-04-27T04:24:50.074Z,27.90
2023-04-27T04:27:18.036Z,27.65
2023-04-27T04:29:46.202Z,27.45
2023-04-27T04:32:17.786Z,27.87
2023-04-27T04:34:50.718Z,27.61
2023-04-27T04:37:18.605Z,27.58
2023-04-27T04:39:46.703Z,27.69
2023-04-27T04:42:14.583Z,27.55
2023-04-27T04:44:42.797Z,27.31
2023-04-27T04:47:11.187Z,27.27
2023-04-27T04:49:39.197Z,27.31
2023-04-27T04:52:08.479Z,27.28
2023-04-27T04:54:36.685Z,27.47
2023-04-27T04:57:04.726Z,27.23
2023-04-27T04:59:34.628Z,27.24
2023-04-27T05:02:02.666Z,27.25
2023-04-27T05:04:30.804Z,27.24
2023-04-27T05:07:00.131Z,27.28
2023-04-27T05:09:29.444Z,27.29
2023-04-27T05:11:57.453Z,27.74
2023-04-27T05:14:25.822Z,27.66
2023-04-27T05:16:53.774Z,27.59
2023-04-27T05:19:21.682Z,27.43
2023-04-27T05:21:49.572Z,27.37
2023-04-27T05:24:18.060Z,27.43
2023-04-27T05:26:47.431Z,27.73
2023-04-27T05:29:15.765Z,27.25
2023-04-27T05:31:44.090Z,27.37
2023-04-27T05:34:12.021Z,27.76
2023-04-27T05:36:39.942Z,27.51
2023-04-27T05:39:08.036Z,27.44
2023-04-27T05:41:36.077Z,27.60
2023-04-27T05:44:05.548Z,27.52
2023-04-27T05:46:33.539Z,27.41
2023-04-27T05:49:01.690Z,27.62
2023-04-27T05:51:30.010Z,27.55
2023-04-27T05:53:59.936Z,27.44
2023-04-27T05:56:27.914Z,27.51
2023-04-27T05:58:55.962Z,27.64
2023-04-27T06:01:25.428Z,27.47
2023-04-27T06:03:53.614Z,27.38
2023-04-27T06:06:21.581Z,27.64
2023-04-27T06:08:49.564Z,27.74
2023-04-27T06:11:18.049Z,27.40
2023-04-27T06:13:46.460Z,27.47
2023-04-27T06:16:14.528Z,27.63
2023-04-27T06:18:43.887Z,27.49
2023-04-27T06:21:11.854Z,27.42
2023-04-27T06:23:39.795Z,27.43
2023-04-27T06:26:07.862Z,27.48
2023-04-27T06:28:35.789Z,27.85
2023-04-27T06:31:04.761Z,27.50
2023-04-27T06:33:32.942Z,27.55
2023-04-27T06:36:03.294Z,28.22
2023-04-27T06:38:31.287Z,27.62
2023-04-27T06:40:59.322Z,27.84
2023-04-27T06:43:27.335Z,27.91
2023-04-27T06:45:55.247Z,27.86
2023-04-27T06:48:23.304Z,27.80
2023-04-27T06:50:52.147Z,27.93
2023-04-27T06:53:21.752Z,28.07
2023-04-27T06:55:51.129Z,27.75
2023-04-27T06:58:19.218Z,28.21
2023-04-27T07:00:47.254Z,28.13
2023-04-27T07:03:15.868Z,28.11
2023-04-27T07:05:44.188Z,28.28
2023-04-27T07:08:13.407Z,28.46
2023-04-27T07:10:42.761Z,28.04
2023-04-27T07:13:11.745Z,28.56
2023-04-27T07:15:40.464Z,28.11
2023-04-27T07:18:08.804Z,28.46
2023-04-27T07:20:38.865Z,28.46
2023-04-27T07:23:07.317Z,28.25
2023-04-27T07:25:36.251Z,28.14
2023-04-27T07:28:05.728Z,28.34
2023-04-27T07:30:36.496Z,28.13
2023-04-27T07:33:04.535Z,28.29
2023-04-27T07:35:33.004Z,28.44
2023-04-27T07:38:01.918Z,28.51
2023-04-27T07:40:29.910Z,28.09
2023-04-27T07:42:58.402Z,28.70
2023-04-27T07:45:32.341Z,29.17
2023-04-27T07:48:00.917Z,29.45
2023-04-27T07:50:30.866Z,29.36
2023-04-27T07:52:58.883Z,29.22
2023-04-27T07:55:27.138Z,29.30
2023-04-27T07:57:55.105Z,28.76
2023-04-27T08:00:23.643Z,28.70
2023-04-27T08:02:54.464Z,28.64
2023-04-27T08:05:23.093Z,28.89
2023-04-27T08:07:54.232Z,28.86
2023-04-27T08:10:22.719Z,28.75
2023-04-27T08:12:50.790Z,28.81
2023-04-27T08:15:18.715Z,28.38
2023-04-27T08:17:47.344Z,28.39
2023-04-27T08:20:16.860Z,28.41
2023-04-27T08:22:45.040Z,28.47
2023-04-27T08:25:13.009Z,28.55
2023-04-27T08:27:41.091Z,28.31
2023-04-27T08:30:10.500Z,28.51
2023-04-27T08:32:38.461Z,28.19
2023-04-27T08:35:07.258Z,28.10
2023-04-27T08:37:36.693Z,28.27
2023-04-27T08:40:06.920Z,28.29
2023-04-27T08:42:34.880Z,28.39
2023-04-27T08:45:02.765Z,28.38
2023-04-27T08:47:41.805Z,28.23
2023-04-27T08:50:12.154Z,28.00
2023-04-27T08:52:41.602Z,28.10
2023-04-27T08:55:10.142Z,28.49
2023-04-27T08:57:38.084Z,28.32
2023-04-27T09:00:12.938Z,28.13
2023-04-27T09:02:46.825Z,28.33
2023-04-27T09:05:18.549Z,28.18
2023-04-27T09:08:02.300Z,28.10
2023-04-27T09:10:30.379Z,27.98
2023-04-27T09:12:59.138Z,28.21
2023-04-27T09:15:27.116Z,28.24
2023-04-27T09:17:56.580Z,28.07
2023-04-27T09:20:27.096Z,28.18
2023-04-27T09:22:58.401Z,28.31
2023-04-27T09:25:28.924Z,28.31
2023-04-27T09:27:58.109Z,28.25
2023-04-27T09:30:26.356Z,28.02
2023-04-27T09:32:55.012Z,27.74
2023-04-27T09:35:24.147Z,28.09
2023-04-27T09:37:53.225Z,27.77
2023-04-27T09:40:23.731Z,27.85
2023-04-27T09:42:53.169Z,27.86
2023-04-27T09:45:21.149Z,28.18
2023-04-27T09:47:49.113Z,27.88
2023-04-27T09:50:17.372Z,28.22
2023-04-27T09:52:46.695Z,28.25
2023-04-27T09:55:17.712Z,28.24
2023-04-27T09:57:52.831Z,27.98
2023-04-27T10:00:26.212Z,28.06
2023-04-27T10:03:00.165Z,28.13
2023-04-27T10:05:36.639Z,28.17
2023-04-27T10:08:05.036Z,28.18
2023-04-27T10:10:43.360Z,28.14
2023-04-27T10:13:23.953Z,28.18
2023-04-27T10:15:52.492Z,28.32
2023-04-27T10:18:27.340Z,28.38
2023-04-27T10:20:55.330Z,27.97
2023-04-27T10:23:26.789Z,27.96
2023-04-27T10:25:54.907Z,28.39
2023-04-27T10:28:24.218Z,28.06
2023-04-27T10:30:52.366Z,28.23
2023-04-27T10:33:21.454Z,28.08
2023-04-27T10:35:55.835Z,27.77
2023-04-27T10:38:28.446Z,27.93
2023-04-27T10:40:57.133Z,28.25
2023-04-27T10:43:27.692Z,28.05
2023-04-27T10:45:55.936Z,28.11
2023-04-27T10:48:23.985Z,27.96
2023-04-27T10:50:52.595Z,28.21
2023-04-27T10:53:20.695Z,28.09
2023-04-27T10:55:49.272Z,28.33
2023-04-27T10:58:17.179Z,28.18
2023-04-27T11:00:46.464Z,28.25
2023-04-27T11:03:17.033Z,28.05
2023-04-27T11:05:45.486Z,27.84
2023-04-27T11:08:14.381Z,28.27
2023-04-27T11:10:43.913Z,28.13
2023-04-27T11:13:12.775Z,27.95
2023-04-27T11:15:49.123Z,27.73
2023-04-27T11:18:17.527Z,27.75
2023-04-27T11:20:45.619Z,28.10
2023-04-27T11:23:24.576Z,27.83
2023-04-27T11:25:52.833Z,27.92
2023-04-27T11:28:21.530Z,28.12
2023-04-27T11:30:56.699Z,27.92
2023-04-27T11:33:24.689Z,27.96
2023-04-27T11:35:52.584Z,27.69
2023-04-27T11:38:20.577Z,27.77
2023-04-27T11:40:48.629Z,27.81
2023-04-27T11:43:16.864Z,28.04
2023-04-27T11:45:45.058Z,27.70
2023-04-27T11:48:17.587Z,27.89
2023-04-27T11:50:48.332Z,27.84
2023-04-27T11:53:18.669Z,28.16
2023-04-27T11:55:52.712Z,28.34
2023-04-27T11:58:20.657Z,27.88
2023-04-27T12:00:48.629Z,28.25
2023-04-27T12:03:18.262Z,27.90
2023-04-27T12:05:50.110Z,27.80
2023-04-27T12:08:18.213Z,27.77
2023-04-27T12:10:46.426Z,27.99
2023-04-27T12:13:14.459Z,28.09
2023-04-27T12:15:42.492Z,27.73
2023-04-27T12:18:10.613Z,27.79
2023-04-27T12:20:40.080Z,27.85
2023-04-27T12:23:08.423Z,27.95
2023-04-27T12:25:36.493Z,27.90
2023-04-27T12:28:04.774Z,27.92
2023-04-27T12:30:32.783Z,27.91
2023-04-27T12:33:00.945Z,27.92
2023-04-27T12:35:31.861Z,27.75
2023-04-27T12:38:02.132Z,27.49
2023-04-27T12:40:30.144Z,27.75
2023-04-27T12:43:00.430Z,27.49
2023-04-27T12:45:29.076Z,27.40
2023-04-27T12:48:03.197Z,27.72
2023-04-27T12:50:32.352Z,27.50
2023-04-27T12:53:02.042Z,27.72
2023-04-27T12:55:34.115Z,27.44
2023-04-27T12:58:02.649Z,27.55
2023-04-27T13:00:31.182Z,27.42
2023-04-27T13:02:59.561Z,27.62
2023-04-27T13:05:29.728Z,27.51
2023-04-27T13:07:59.193Z,27.69
2023-04-27T13:10:29.125Z,27.44
2023-04-27T13:12:57.148Z,27.62
2023-04-27T13:15:25.074Z,27.24
2023-04-27T13:17:54.551Z,27.83
2023-04-27T13:20:22.671Z,29.91
2023-04-27T13:22:50.650Z,31.47
2023-04-27T13:25:20.010Z,33.36
2023-04-27T13:27:50.257Z,33.87
2023-04-27T13:30:18.318Z,33.08
2023-04-27T13:32:46.346Z,32.43
2023-04-27T13:35:14.470Z,32.50
2023-04-27T13:37:42.807Z,35.04
2023-04-27T13:40:12.616Z,36.05
2023-04-27T13:42:40.906Z,34.67
2023-04-27T13:45:11.410Z,34.41
2023-04-27T13:47:40.364Z,33.72
2023-04-27T13:50:10.314Z,35.20
2023-04-27T13:52:38.993Z,35.18
2023-04-27T13:55:07.941Z,37.49
2023-04-27T13:57:35.918Z,36.60
2023-04-27T14:00:04.067Z,35.55
2023-04-27T14:02:33.538Z,37.73
2023-04-27T14:05:01.770Z,37.33
2023-04-27T14:07:30.768Z,35.76
2023-04-27T14:09:58.746Z,37.58
2023-04-27T14:12:26.862Z,37.40
2023-04-27T14:14:56.230Z,38.73
2023-04-27T14:17:25.802Z,36.94
2023-04-27T14:19:55.247Z,35.36
2023-04-27T14:22:23.262Z,37.14
2023-04-27T14:24:52.119Z,36.31
2023-04-27T14:27:20.164Z,38.16
2023-04-27T14:29:49.979Z,35.73
2023-04-27T14:32:18.237Z,37.84
2023-04-27T14:34:46.329Z,38.75
2023-04-27T14:37:15.569Z,37.74
2023-04-27T14:39:45.282Z,34.30
2023-04-27T14:42:13.437Z,35.22
2023-04-27T14:44:41.481Z,33.81
2023-04-27T14:47:09.509Z,33.88
2023-04-27T14:49:37.690Z,34.41
2023-04-27T14:52:06.745Z,33.94
2023-04-27T14:54:38.512Z,33.96
2023-04-27T14:57:24.714Z,33.55
2023-04-27T14:59:52.709Z,35.07
2023-04-27T15:02:20.808Z,33.91
2023-04-27T15:04:48.928Z,34.93
2023-04-27T15:07:16.837Z,34.63
2023-04-27T15:09:46.190Z,33.52
2023-04-27T15:12:14.168Z,32.19
2023-04-27T15:14:42.122Z,33.67
2023-04-27T15:17:10.025Z,35.47
2023-04-27T15:19:38.020Z,34.69
2023-04-27T15:22:07.232Z,33.87
2023-04-27T15:24:35.204Z,34.79
2023-04-27T15:27:04.627Z,36.13
2023-04-27T15:29:32.680Z,35.70
2023-04-27T15:32:01.233Z,36.21
2023-04-27T15:34:29.200Z,35.19
2023-04-27T15:36:57.081Z,35.35
2023-04-27T15:39:25.067Z,35.02
2023-04-27T15:41:52.963Z,35.78
2023-04-27T15:44:22.246Z,36.41
2023-04-27T15:46:50.180Z,34.36
2023-04-27T15:49:18.132Z,36.06
2023-04-27T15:51:46.229Z,34.38
2023-04-27T15:54:14.224Z,35.46
2023-04-27T15:56:42.208Z,32.84
2023-04-27T15:59:10.167Z,33.81
2023-04-27T16:01:39.493Z,33.70
2023-04-27T16:04:07.707Z,35.26
2023-04-27T16:06:36.875Z,34.99
2023-04-27T16:09:04.931Z,33.82
2023-04-27T16:11:32.940Z,35.26
2023-04-27T16:14:01.198Z,33.20
2023-04-27T16:16:29.354Z,33.27
2023-04-27T16:18:59.492Z,33.00
2023-04-27T16:21:28.074Z,32.87
2023-04-27T16:23:56.128Z,34.70
2023-04-27T16:26:25.964Z,33.78
2023-04-27T16:28:56.609Z,32.79
2023-04-27T16:31:25.143Z,34.01
2023-04-27T16:33:53.065Z,33.31
2023-04-27T16:36:22.327Z,34.69
2023-04-27T16:38:50.288Z,33.07
2023-04-27T16:41:18.292Z,35.14
2023-04-27T16:43:46.328Z,33.96
2023-04-27T16:46:14.821Z,33.29
2023-04-27T16:48:42.727Z,34.28
2023-04-27T16:51:10.801Z,33.01
2023-04-27T16:53:40.136Z,34.01
2023-04-27T16:56:10.105Z,32.45
2023-04-27T16:58:38.428Z,33.48
2023-04-27T17:01:06.545Z,32.44
2023-04-27T17:03:36.058Z,33.11
2023-04-27T17:06:04.228Z,32.48
2023-04-27T17:08:32.241Z,32.48
2023-04-27T17:11:01.653Z,32.64
2023-04-27T17:13:29.738Z,33.02
2023-04-27T17:15:57.742Z,32.39
2023-04-27T17:18:25.807Z,31.66
2023-04-27T17:20:54.188Z,31.73
2023-04-27T17:23:22.271Z,31.29
2023-04-27T17:25:50.269Z,31.59
2023-04-27T17:28:19.692Z,31.43
2023-04-27T17:30:47.742Z,30.98
2023-04-27T17:33:16.802Z,31.24
2023-04-27T17:35:44.998Z,31.78
2023-04-27T17:38:12.933Z,31.47
2023-04-27T17:40:40.915Z,31.67
2023-04-27T17:43:09.286Z,31.67
2023-04-27T17:45:38.992Z,32.01
2023-04-27T17:48:07.790Z,31.46
2023-04-27T17:50:36.245Z,31.72
2023-04-27T17:53:04.233Z,31.25
2023-04-27T17:55:32.364Z,31.27
2023-04-27T17:58:00.290Z,31.17
2023-04-27T18:00:28.325Z,31.59
2023-04-27T18:02:57.828Z,31.44
2023-04-27T18:05:26.164Z,31.24
2023-04-27T18:07:54.285Z,31.08
2023-04-27T18:10:22.261Z,31.37
2023-04-27T18:12:50.188Z,31.70
2023-04-27T18:15:18.230Z,31.17
2023-04-27T18:17:46.384Z,30.90
2023-04-27T18:20:15.994Z,30.83
2023-04-27T18:22:44.075Z,30.57
2023-04-27T18:25:13.261Z,30.73
2023-04-27T18:27:41.586Z,30.99
2023-04-27T18:30:09.872Z,30.74
2023-04-27T18:32:37.889Z,30.74
2023-04-27T18:35:06.707Z,30.15
2023-04-27T18:37:36.131Z,30.45
2023-04-27T18:40:05.890Z,30.38
2023-04-27T18:42:33.924Z,30.14
2023-04-27T18:45:01.943Z,30.65
2023-04-27T18:47:29.938Z,30.13
2023-04-27T18:49:57.838Z,30.57
2023-04-27T18:52:25.737Z,30.43
2023-04-27T18:54:55.083Z,30.58
2023-04-27T18:57:23.412Z,30.49
2023-04-27T18:59:51.318Z,30.16
2023-04-27T19:02:19.447Z,30.57
2023-04-27T19:04:56.715Z,30.54
2023-04-27T19:07:29.921Z,30.62
2023-04-27T19:09:59.194Z,30.21
2023-04-27T19:12:27.312Z,29.88
2023-04-27T19:14:55.313Z,29.56
2023-04-27T19:17:24.669Z,29.92
2023-04-27T19:19:52.943Z,29.55
2023-04-27T19:22:20.945Z,29.82
2023-04-27T19:24:48.984Z,29.97
2023-04-27T19:27:18.292Z,29.82
2023-04-27T19:29:50.844Z,30.11
2023-04-27T19:32:19.694Z,30.10
2023-04-27T19:34:47.659Z,30.08
2023-04-27T19:37:15.999Z,30.22
2023-04-27T19:39:44.005Z,30.06
2023-04-27T19:42:11.998Z,29.90
2023-04-27T19:44:41.599Z,30.09
2023-04-27T19:47:10.813Z,30.04
2023-04-27T19:49:38.749Z,29.79
2023-04-27T19:52:07.602Z,30.22
2023-04-27T19:54:36.129Z,30.10
2023-04-27T19:57:04.640Z,29.90
2023-04-27T19:59:32.636Z,30.12
2023-04-27T20:02:01.991Z,29.97
2023-04-27T20:04:30.179Z,29.63
2023-04-27T20:06:58.316Z,29.50
2023-04-27T20:09:26.219Z,29.78
2023-04-27T20:11:55.011Z,29.54
2023-04-27T20:14:22.925Z,29.53
2023-04-27T20:16:50.805Z,29.56
2023-04-27T20:19:20.926Z,29.52
2023-04-27T20:21:48.920Z,29.78
2023-04-27T20:24:17.380Z,29.49
2023-04-27T20:26:46.516Z,29.97
2023-04-27T20:29:14.467Z,29.58
2023-04-27T20:31:42.480Z,29.56
2023-04-27T20:34:10.408Z,29.81
2023-04-27T20:36:39.636Z,29.49
2023-04-27T20:39:09.055Z,29.54
2023-04-27T20:41:38.561Z,29.34
2023-04-27T20:44:07.189Z,29.43
2023-04-27T20:46:35.256Z,29.39
2023-04-27T20:49:03.326Z,29.68
2023-04-27T20:51:33.014Z,29.44
2023-04-27T20:54:02.545Z,29.52
2023-04-27T20:56:32.941Z,29.44
2023-04-27T20:59:00.971Z,29.48
2023-04-27T21:01:29.052Z,29.44
2023-04-27T21:03:57.195Z,29.47
2023-04-27T21:06:25.198Z,29.58
2023-04-27T21:08:53.163Z,29.62
2023-04-27T21:11:22.682Z,29.27
2023-04-27T21:13:50.662Z,29.31
2023-04-27T21:16:18.633Z,29.41
2023-04-27T21:18:46.608Z,29.55
2023-04-27T21:21:14.542Z,29.48
2023-04-27T21:23:42.458Z,29.35
2023-04-27T21:26:10.815Z,29.15
2023-04-27T21:28:46.510Z,29.43
2023-04-27T21:31:14.554Z,29.66
2023-04-27T21:33:42.585Z,29.20
2023-04-27T21:36:10.864Z,29.69
2023-04-27T21:38:38.806Z,29.49
2023-04-27T21:41:06.839Z,29.28
2023-04-27T21:43:34.802Z,29.30
2023-04-27T21:46:04.165Z,29.44
2023-04-27T21:48:32.202Z,29.12
2023-04-27T21:51:00.130Z,29.24
2023-04-27T21:53:28.025Z,29.26
2023-04-27T21:55:57.672Z,29.43
2023-04-27T21:58:25.677Z,29.13
2023-04-27T22:00:53.792Z,29.34
2023-04-27T22:03:23.562Z,29.10
2023-04-27T22:05:52.905Z,29.17
2023-04-27T22:08:21.778Z,29.47
2023-04-27T22:10:49.842Z,29.16
2023-04-27T22:13:45.685Z,29.16
2023-04-27T22:16:14.071Z,29.00
2023-04-27T22:18:43.558Z,29.20
2023-04-27T22:21:12.419Z,28.97
2023-04-27T22:23:40.393Z,29.09
2023-04-27T22:26:09.015Z,28.98
2023-04-27T22:28:37.232Z,28.70
2023-04-27T22:31:05.451Z,28.76
2023-04-27T22:33:33.493Z,29.24
2023-04-27T22:36:02.885Z,29.04
2023-04-27T22:38:30.780Z,28.81
2023-04-27T22:40:58.780Z,28.76
2023-04-27T22:43:29.848Z,28.90
2023-04-27T22:45:57.828Z,28.95
2023-04-27T22:48:26.266Z,29.13
2023-04-27T22:50:54.155Z,28.64
2023-04-27T22:53:23.397Z,28.99
2023-04-27T22:55:51.350Z,28.84
2023-04-27T22:58:19.466Z,29.04
2023-04-27T23:00:47.551Z,28.92
2023-04-27T23:03:15.822Z,29.02
2023-04-27T23:05:43.916Z,28.70
2023-04-27T23:08:13.400Z,28.92
2023-04-27T23:10:42.975Z,28.91
2023-04-27T23:13:10.893Z,28.94
2023-04-27T23:15:39.627Z,28.66
2023-04-27T23:18:07.692Z,28.97
2023-04-27T23:20:35.663Z,28.66
2023-04-27T23:23:03.589Z,28.48
2023-04-27T23:25:33.050Z,28.85
2023-04-27T23:28:02.982Z,28.72
2023-04-27T23:30:31.102Z,28.79
2023-04-27T23:32:59.102Z,28.47
2023-04-27T23:35:28.415Z,28.45
2023-04-27T23:37:56.604Z,28.58
2023-04-27T23:40:24.618Z,28.62
2023-04-27T23:42:52.655Z,28.46
2023-04-27T23:45:22.264Z,28.44
2023-04-27T23:47:50.286Z,28.52
2023-04-27T23:50:18.506Z,28.35
2023-04-27T23:52:46.451Z,28.64
2023-04-27T23:55:14.438Z,28.33
2023-04-27T23:57:42.930Z,28.54
